sensor_id;sensor_type;location;lat;lon;timestamp;pressure;altitude;pressure_sealevel;temperature;humidity
38558;BME280;24333;42.626;23.308;2023-02-28T00:01:14;92611.31;;;5.72;100.00
38558;BME280;24333;42.626;23.308;2023-02-28T00:03:40;92614.78;;;5.72;100.00
38558;BME280;24333;42.626;23.308;2023-02-28T00:06:07;92636.13;;;5.86;100.00
38558;BME280;24333;42.626;23.308;2023-02-28T00:08:33;92628.69;;;5.83;100.00
38558;BME280;24333;42.626;23.308;2023-02-28T00:11:07;92616.81;;;5.75;100.00
38558;BME280;24333;42.626;23.308;2023-02-28T00:13:34;92621.25;;;5.80;100.00
38558;BME280;24333;42.626;23.308;2023-02-28T00:16:05;92631.16;;;5.88;100.00
38558;BME280;24333;42.626;23.308;2023-02-28T00:18:32;92638.97;;;5.90;100.00
38558;BME280;24333;42.626;23.308;2023-02-28T00:20:58;92638.50;;;5.88;100.00
38558;BME280;24333;42.626;23.308;2023-02-28T00:23:24;92643.34;;;5.94;100.00
38558;BME280;24333;42.626;23.308;2023-02-28T00:25:50;92635.47;;;5.89;100.00
38558;BME280;24333;42.626;23.308;2023-02-28T00:28:15;92631.84;;;5.85;100.00
38558;BME280;24333;42.626;23.308;2023-02-28T00:30:40;92631.72;;;5.82;100.00
38558;BME280;24333;42.626;23.308;2023-02-28T00:33:06;92646.63;;;5.88;100.00
38558;BME280;24333;42.626;23.308;2023-02-28T00:35:31;92642.34;;;5.87;100.00
38558;BME280;24333;42.626;23.308;2023-02-28T00:37:57;92638.69;;;5.83;100.00
38558;BME280;24333;42.626;23.308;2023-02-28T00:40:22;92631.81;;;5.73;100.00
38558;BME280;24333;42.626;23.308;2023-02-28T00:42:48;92623.88;;;5.55;100.00
38558;BME280;24333;42.626;23.308;2023-02-28T00:45:13;92637.63;;;5.62;100.00
38558;BME280;24333;42.626;23.308;2023-02-28T00:47:38;92623.47;;;5.44;100.00
38558;BME280;24333;42.626;23.308;2023-02-28T00:50:05;92632.06;;;5.46;100.00
38558;BME280;24333;42.626;23.308;2023-02-28T00:52:31;92631.59;;;5.44;100.00
38558;BME280;24333;42.626;23.308;2023-02-28T02:17:25;92614.44;;;4.85;100.00
38558;BME280;24333;42.626;23.308;2023-02-28T02:25:42;92626.81;;;4.86;100.00
38558;BME280;24333;42.626;23.308;2023-02-28T02:35:00;92611.53;;;4.69;100.00
38558;BME280;24333;42.626;23.308;2023-02-28T02:37:38;92623.06;;;4.48;100.00
38558;BME280;24333;42.626;23.308;2023-02-28T02:40:09;92621.69;;;4.42;100.00
38558;BME280;24333;42.626;23.308;2023-02-28T02:42:53;92628.84;;;4.38;100.00
38558;BME280;24333;42.626;23.308;2023-02-28T02:45:45;92621.59;;;4.30;100.00
38558;BME280;24333;42.626;23.308;2023-02-28T02:48:16;92626.84;;;4.26;100.00
38558;BME280;24333;42.626;23.308;2023-02-28T02:50:46;92632.44;;;4.21;100.00
38558;BME280;24333;42.626;23.308;2023-02-28T02:53:17;92621.00;;;4.15;100.00
38558;BME280;24333;42.626;23.308;2023-02-28T02:55:50;92611.88;;;4.08;100.00
38558;BME280;24333;42.626;23.308;2023-02-28T02:58:24;92631.16;;;4.18;100.00
38558;BME280;24333;42.626;23.308;2023-02-28T03:00:54;92646.41;;;4.23;100.00
38558;BME280;24333;42.626;23.308;2023-02-28T03:03:21;92643.69;;;4.23;100.00
38558;BME280;24333;42.626;23.308;2023-02-28T03:05:54;92644.06;;;4.13;100.00
38558;BME280;24333;42.626;23.308;2023-02-28T03:08:20;92651.63;;;4.19;100.00
38558;BME280;24333;42.626;23.308;2023-02-28T03:10:55;92650.06;;;4.18;100.00
38558;BME280;24333;42.626;23.308;2023-02-28T03:21:56;92674.13;;;4.32;100.00
38558;BME280;24333;42.626;23.308;2023-02-28T03:24:37;92676.66;;;4.38;100.00
38558;BME280;24333;42.626;23.308;2023-02-28T03:27:10;92669.31;;;4.47;100.00
38558;BME280;24333;42.626;23.308;2023-02-28T03:29:45;92672.16;;;4.51;100.00
38558;BME280;24333;42.626;23.308;2023-02-28T03:35:01;92661.03;;;4.52;100.00
38558;BME280;24333;42.626;23.308;2023-02-28T03:37:35;92677.72;;;4.54;100.00
38558;BME280;24333;42.626;23.308;2023-02-28T03:40:17;92681.94;;;4.64;100.00
38558;BME280;24333;42.626;23.308;2023-02-28T03:42:47;92672.91;;;4.60;100.00
38558;BME280;24333;42.626;23.308;2023-02-28T03:45:26;92666.72;;;4.59;100.00
38558;BME280;24333;42.626;23.308;2023-02-28T03:47:58;92667.19;;;4.61;100.00
38558;BME280;24333;42.626;23.308;2023-02-28T03:50:29;92683.34;;;4.70;100.00
38558;BME280;24333;42.626;23.308;2023-02-28T03:53:07;92677.66;;;4.63;100.00
38558;BME280;24333;42.626;23.308;2023-02-28T03:55:40;92682.34;;;4.75;100.00
38558;BME280;24333;42.626;23.308;2023-02-28T04:01:12;92677.91;;;4.79;100.00
38558;BME280;24333;42.626;23.308;2023-02-28T04:03:40;92662.97;;;4.73;100.00
38558;BME280;24333;42.626;23.308;2023-02-28T04:06:08;92683.47;;;4.74;100.00
38558;BME280;24333;42.626;23.308;2023-02-28T04:08:39;92688.09;;;4.73;100.00
38558;BME280;24333;42.626;23.308;2023-02-28T04:11:25;92688.75;;;4.70;100.00
38558;BME280;24333;42.626;23.308;2023-02-28T05:26:59;92708.56;;;4.44;100.00
38558;BME280;24333;42.626;23.308;2023-02-28T05:29:25;92701.88;;;4.42;100.00
38558;BME280;24333;42.626;23.308;2023-02-28T05:31:56;92718.88;;;4.51;100.00
38558;BME280;24333;42.626;23.308;2023-02-28T05:34:22;92724.66;;;4.71;100.00
38558;BME280;24333;42.626;23.308;2023-02-28T05:36:48;92719.72;;;4.73;100.00
38558;BME280;24333;42.626;23.308;2023-02-28T07:08:15;92776.06;;;6.41;100.00
38558;BME280;24333;42.626;23.308;2023-02-28T07:10:40;92779.16;;;6.51;100.00
38558;BME280;24333;42.626;23.308;2023-02-28T07:13:07;92787.31;;;6.64;100.00
38558;BME280;24333;42.626;23.308;2023-02-28T07:15:33;92769.69;;;6.58;100.00
38558;BME280;24333;42.626;23.308;2023-02-28T07:17:59;92787.22;;;6.73;100.00
38558;BME280;24333;42.626;23.308;2023-02-28T07:20:24;92785.75;;;6.75;100.00
38558;BME280;24333;42.626;23.308;2023-02-28T07:22:50;92792.41;;;6.78;100.00
38558;BME280;24333;42.626;23.308;2023-02-28T07:25:26;92789.38;;;6.79;100.00
38558;BME280;24333;42.626;23.308;2023-02-28T07:27:52;92792.63;;;6.85;100.00
38558;BME280;24333;42.626;23.308;2023-02-28T07:30:18;92775.25;;;6.86;100.00
38558;BME280;24333;42.626;23.308;2023-02-28T07:32:44;92782.03;;;7.05;100.00
38558;BME280;24333;42.626;23.308;2023-02-28T07:35:10;92782.84;;;7.18;100.00
38558;BME280;24333;42.626;23.308;2023-02-28T07:37:35;92777.97;;;7.23;100.00
38558;BME280;24333;42.626;23.308;2023-02-28T07:40:06;92791.75;;;7.18;100.00
38558;BME280;24333;42.626;23.308;2023-02-28T07:42:34;92800.81;;;7.10;100.00
38558;BME280;24333;42.626;23.308;2023-02-28T07:45:00;92800.91;;;7.01;100.00
38558;BME280;24333;42.626;23.308;2023-02-28T07:47:26;92800.91;;;6.89;100.00
38558;BME280;24333;42.626;23.308;2023-02-28T07:49:51;92797.06;;;6.77;100.00
38558;BME280;24333;42.626;23.308;2023-02-28T07:52:17;92781.66;;;6.69;100.00
38558;BME280;24333;42.626;23.308;2023-02-28T07:54:42;92790.13;;;6.68;100.00
38558;BME280;24333;42.626;23.308;2023-02-28T07:57:08;92777.81;;;6.70;100.00
38558;BME280;24333;42.626;23.308;2023-02-28T07:59:33;92791.63;;;6.90;100.00
38558;BME280;24333;42.626;23.308;2023-02-28T08:01:58;92786.56;;;7.01;100.00
38558;BME280;24333;42.626;23.308;2023-02-28T08:04:25;92785.34;;;7.11;100.00
38558;BME280;24333;42.626;23.308;2023-02-28T08:06:50;92783.38;;;7.23;100.00
38558;BME280;24333;42.626;23.308;2023-02-28T08:09:18;92773.56;;;7.31;100.00
38558;BME280;24333;42.626;23.308;2023-02-28T08:11:43;92773.44;;;7.40;100.00
38558;BME280;24333;42.626;23.308;2023-02-28T08:14:09;92772.31;;;7.41;100.00
38558;BME280;24333;42.626;23.308;2023-02-28T08:16:35;92778.97;;;7.56;100.00
38558;BME280;24333;42.626;23.308;2023-02-28T08:19:01;92783.13;;;7.53;100.00
38558;BME280;24333;42.626;23.308;2023-02-28T08:21:26;92771.25;;;7.58;100.00
38558;BME280;24333;42.626;23.308;2023-02-28T08:23:51;92799.72;;;7.77;100.00
38558;BME280;24333;42.626;23.308;2023-02-28T08:26:18;92793.63;;;7.80;100.00
38558;BME280;24333;42.626;23.308;2023-02-28T08:28:44;92804.41;;;7.51;100.00
38558;BME280;24333;42.626;23.308;2023-02-28T08:31:11;92793.25;;;7.16;100.00
38558;BME280;24333;42.626;23.308;2023-02-28T08:33:37;92805.66;;;7.04;100.00
38558;BME280;24333;42.626;23.308;2023-02-28T08:36:04;92807.13;;;7.02;100.00
38558;BME280;24333;42.626;23.308;2023-02-28T08:38:30;92809.16;;;7.17;100.00
38558;BME280;24333;42.626;23.308;2023-02-28T08:41:00;92801.38;;;7.28;100.00
38558;BME280;24333;42.626;23.308;2023-02-28T08:43:27;92803.28;;;7.40;100.00
38558;BME280;24333;42.626;23.308;2023-02-28T08:45:53;92798.19;;;7.26;100.00
38558;BME280;24333;42.626;23.308;2023-02-28T08:48:18;92799.09;;;7.30;100.00
38558;BME280;24333;42.626;23.308;2023-02-28T08:50:44;92788.47;;;7.37;100.00
38558;BME280;24333;42.626;23.308;2023-02-28T08:53:09;92799.66;;;7.48;100.00
38558;BME280;24333;42.626;23.308;2023-02-28T08:55:35;92806.19;;;7.60;100.00
38558;BME280;24333;42.626;23.308;2023-02-28T08:58:00;92794.22;;;7.48;100.00
38558;BME280;24333;42.626;23.308;2023-02-28T09:00:26;92788.44;;;7.62;100.00
38558;BME280;24333;42.626;23.308;2023-02-28T09:02:52;92812.72;;;7.84;100.00
38558;BME280;24333;42.626;23.308;2023-02-28T09:05:17;92806.81;;;7.94;100.00
38558;BME280;24333;42.626;23.308;2023-02-28T09:50:38;92798.75;;;8.83;100.00
38558;BME280;24333;42.626;23.308;2023-02-28T09:53:33;92792.72;;;9.06;100.00
38558;BME280;24333;42.626;23.308;2023-02-28T11:00:20;92719.69;;;11.32;100.00
38558;BME280;24333;42.626;23.308;2023-02-28T11:03:09;92715.69;;;11.25;100.00
38558;BME280;24333;42.626;23.308;2023-02-28T11:05:57;92729.13;;;11.38;100.00
38558;BME280;24333;42.626;23.308;2023-02-28T11:08:23;92727.78;;;11.51;100.00
38558;BME280;24333;42.626;23.308;2023-02-28T11:11:15;92722.75;;;11.53;100.00
38558;BME280;24333;42.626;23.308;2023-02-28T11:14:14;92725.66;;;11.68;100.00
38558;BME280;24333;42.626;23.308;2023-02-28T11:16:49;92719.38;;;11.64;100.00
38558;BME280;24333;42.626;23.308;2023-02-28T11:20:03;92707.53;;;11.56;100.00
38558;BME280;24333;42.626;23.308;2023-02-28T11:22:38;92713.06;;;11.60;100.00
38558;BME280;24333;42.626;23.308;2023-02-28T11:25:32;92713.72;;;11.49;100.00
38558;BME280;24333;42.626;23.308;2023-02-28T11:28:01;92711.84;;;11.57;100.00
38558;BME280;24333;42.626;23.308;2023-02-28T11:30:37;92703.63;;;11.26;100.00
38558;BME280;24333;42.626;23.308;2023-02-28T11:34:20;92712.22;;;11.28;100.00
38558;BME280;24333;42.626;23.308;2023-02-28T11:36:34;92706.59;;;11.18;100.00
38558;BME280;24333;42.626;23.308;2023-02-28T11:39:12;92710.69;;;11.31;100.00
38558;BME280;24333;42.626;23.308;2023-02-28T11:47:30;92699.97;;;11.15;100.00
38558;BME280;24333;42.626;23.308;2023-02-28T11:50:13;92697.03;;;11.31;100.00
38558;BME280;24333;42.626;23.308;2023-02-28T11:55:48;92703.47;;;11.42;100.00
38558;BME280;24333;42.626;23.308;2023-02-28T12:01:23;92695.53;;;11.34;100.00
38558;BME280;24333;42.626;23.308;2023-02-28T12:03:58;92695.44;;;11.26;100.00
38558;BME280;24333;42.626;23.308;2023-02-28T12:06:40;92691.13;;;11.25;100.00
38558;BME280;24333;42.626;23.308;2023-02-28T12:12:11;92701.06;;;10.87;100.00
38558;BME280;24333;42.626;23.308;2023-02-28T12:25:41;92681.25;;;11.44;100.00
38558;BME280;24333;42.626;23.308;2023-02-28T12:28:14;92687.19;;;11.50;100.00
38558;BME280;24333;42.626;23.308;2023-02-28T12:30:50;92682.59;;;11.57;100.00
38558;BME280;24333;42.626;23.308;2023-02-28T12:33:23;92684.19;;;11.59;100.00
38558;BME280;24333;42.626;23.308;2023-02-28T12:35:57;92671.16;;;11.48;100.00
38558;BME280;24333;42.626;23.308;2023-02-28T12:38:29;92684.28;;;11.66;100.00
38558;BME280;24333;42.626;23.308;2023-02-28T12:43:45;92685.03;;;11.66;100.00
38558;BME280;24333;42.626;23.308;2023-02-28T12:46:15;92682.38;;;11.70;100.00
38558;BME280;24333;42.626;23.308;2023-02-28T12:49:02;92678.66;;;11.55;100.00
38558;BME280;24333;42.626;23.308;2023-02-28T12:51:31;92674.50;;;11.34;100.00
38558;BME280;24333;42.626;23.308;2023-02-28T14:38:55;92642.00;;;9.66;100.00
38558;BME280;24333;42.626;23.308;2023-02-28T14:41:32;92648.59;;;9.65;100.00
38558;BME280;24333;42.626;23.308;2023-02-28T14:44:19;92637.28;;;9.63;100.00
38558;BME280;24333;42.626;23.308;2023-02-28T14:47:01;92654.84;;;9.65;100.00
38558;BME280;24333;42.626;23.308;2023-02-28T14:49:50;92655.72;;;9.69;100.00
38558;BME280;24333;42.626;23.308;2023-02-28T16:41:27;92711.72;;;7.37;100.00
38558;BME280;24333;42.626;23.308;2023-02-28T16:43:54;92711.72;;;7.24;100.00
38558;BME280;24333;42.626;23.308;2023-02-28T16:46:25;92712.56;;;7.13;100.00
38558;BME280;24333;42.626;23.308;2023-02-28T16:48:52;92719.78;;;7.21;100.00
38558;BME280;24333;42.626;23.308;2023-02-28T16:51:18;92718.53;;;7.18;100.00
38558;BME280;24333;42.626;23.308;2023-02-28T16:53:44;92725.66;;;7.11;100.00
38558;BME280;24333;42.626;23.308;2023-02-28T16:56:16;92727.00;;;7.04;100.00
38558;BME280;24333;42.626;23.308;2023-02-28T16:58:42;92733.13;;;7.01;100.00
38558;BME280;24333;42.626;23.308;2023-02-28T17:01:07;92716.06;;;6.88;100.00
38558;BME280;24333;42.626;23.308;2023-02-28T17:03:33;92729.41;;;6.93;100.00
38558;BME280;24333;42.626;23.308;2023-02-28T17:05:58;92738.75;;;6.96;100.00
38558;BME280;24333;42.626;23.308;2023-02-28T17:08:24;92736.88;;;6.97;100.00
38558;BME280;24333;42.626;23.308;2023-02-28T17:10:54;92728.03;;;6.87;100.00
38558;BME280;24333;42.626;23.308;2023-02-28T17:13:20;92740.56;;;6.92;100.00
38558;BME280;24333;42.626;23.308;2023-02-28T17:15:45;92736.16;;;6.87;100.00
38558;BME280;24333;42.626;23.308;2023-02-28T17:18:16;92731.78;;;6.83;100.00
38558;BME280;24333;42.626;23.308;2023-02-28T17:20:44;92726.13;;;6.75;100.00
38558;BME280;24333;42.626;23.308;2023-02-28T17:23:10;92732.09;;;6.81;100.00
38558;BME280;24333;42.626;23.308;2023-02-28T17:25:59;92730.75;;;6.75;100.00
38558;BME280;24333;42.626;23.308;2023-02-28T17:28:49;92727.13;;;6.71;100.00
38558;BME280;24333;42.626;23.308;2023-02-28T17:31:27;92729.16;;;6.74;100.00
38558;BME280;24333;42.626;23.308;2023-02-28T17:33:53;92725.69;;;6.73;100.00
38558;BME280;24333;42.626;23.308;2023-02-28T17:36:25;92725.78;;;6.64;100.00
38558;BME280;24333;42.626;23.308;2023-02-28T17:38:54;92722.38;;;6.55;100.00
38558;BME280;24333;42.626;23.308;2023-02-28T17:41:20;92718.41;;;6.53;100.00
38558;BME280;24333;42.626;23.308;2023-02-28T17:43:45;92712.66;;;6.42;100.00
38558;BME280;24333;42.626;23.308;2023-02-28T17:46:22;92727.09;;;6.46;100.00
38558;BME280;24333;42.626;23.308;2023-02-28T17:48:52;92714.78;;;6.36;100.00
38558;BME280;24333;42.626;23.308;2023-02-28T17:51:20;92710.97;;;6.37;100.00
38558;BME280;24333;42.626;23.308;2023-02-28T17:53:46;92710.38;;;6.44;100.00
38558;BME280;24333;42.626;23.308;2023-02-28T17:58:43;92703.94;;;6.36;100.00
38558;BME280;24333;42.626;23.308;2023-02-28T18:01:09;92703.94;;;6.36;100.00
38558;BME280;24333;42.626;23.308;2023-02-28T18:03:34;92696.59;;;6.24;100.00
38558;BME280;24333;42.626;23.308;2023-02-28T18:06:00;92702.78;;;6.25;100.00
38558;BME280;24333;42.626;23.308;2023-02-28T18:08:27;92703.69;;;6.29;100.00
38558;BME280;24333;42.626;23.308;2023-02-28T18:10:52;92703.22;;;6.14;100.00
38558;BME280;24333;42.626;23.308;2023-02-28T18:13:18;92698.50;;;6.11;100.00
38558;BME280;24333;42.626;23.308;2023-02-28T18:15:43;92705.03;;;6.10;100.00
38558;BME280;24333;42.626;23.308;2023-02-28T18:18:09;92703.09;;;6.11;100.00
38558;BME280;24333;42.626;23.308;2023-02-28T18:20:34;92699.16;;;6.08;100.00
38558;BME280;24333;42.626;23.308;2023-02-28T18:23:00;92693.63;;;6.04;100.00
38558;BME280;24333;42.626;23.308;2023-02-28T18:25:26;92694.06;;;6.06;100.00
38558;BME280;24333;42.626;23.308;2023-02-28T18:27:51;92702.19;;;6.06;100.00
38558;BME280;24333;42.626;23.308;2023-02-28T18:30:27;92702.19;;;6.06;100.00
38558;BME280;24333;42.626;23.308;2023-02-28T18:32:56;92700.78;;;6.00;100.00
38558;BME280;24333;42.626;23.308;2023-02-28T18:35:23;92697.94;;;5.97;100.00
38558;BME280;24333;42.626;23.308;2023-02-28T18:38:14;92699.88;;;5.96;100.00
38558;BME280;24333;42.626;23.308;2023-02-28T18:40:40;92704.78;;;6.03;100.00
38558;BME280;24333;42.626;23.308;2023-02-28T18:43:06;92691.56;;;6.01;100.00
38558;BME280;24333;42.626;23.308;2023-02-28T18:45:36;92701.28;;;6.02;100.00
38558;BME280;24333;42.626;23.308;2023-02-28T18:48:02;92704.00;;;6.02;100.00
38558;BME280;24333;42.626;23.308;2023-02-28T18:50:28;92700.16;;;6.03;100.00
38558;BME280;24333;42.626;23.308;2023-02-28T18:52:53;92700.78;;;6.00;100.00
38558;BME280;24333;42.626;23.308;2023-02-28T18:55:34;92709.84;;;6.04;100.00
38558;BME280;24333;42.626;23.308;2023-02-28T18:58:15;92716.56;;;5.98;100.00
38558;BME280;24333;42.626;23.308;2023-02-28T19:00:46;92716.53;;;5.86;100.00
38558;BME280;24333;42.626;23.308;2023-02-28T19:03:12;92716.53;;;5.86;100.00
38558;BME280;24333;42.626;23.308;2023-02-28T19:05:37;92720.94;;;5.90;100.00
38558;BME280;24333;42.626;23.308;2023-02-28T19:08:04;92722.16;;;5.81;100.00
38558;BME280;24333;42.626;23.308;2023-02-28T19:10:29;92723.03;;;5.72;100.00
38558;BME280;24333;42.626;23.308;2023-02-28T19:12:54;92718.78;;;5.62;100.00
38558;BME280;24333;42.626;23.308;2023-02-28T19:15:23;92718.78;;;5.62;100.00
38558;BME280;24333;42.626;23.308;2023-02-28T19:17:48;92728.63;;;5.67;100.00
38558;BME280;24333;42.626;23.308;2023-02-28T19:20:14;92720.06;;;5.65;100.00
38558;BME280;24333;42.626;23.308;2023-02-28T19:22:41;92726.81;;;5.59;100.00
38558;BME280;24333;42.626;23.308;2023-02-28T19:25:07;92729.72;;;5.54;100.00
38558;BME280;24333;42.626;23.308;2023-02-28T19:27:32;92731.75;;;5.57;100.00
38558;BME280;24333;42.626;23.308;2023-02-28T19:29:58;92734.00;;;5.55;100.00
38558;BME280;24333;42.626;23.308;2023-02-28T19:32:24;92717.03;;;5.45;100.00
38558;BME280;24333;42.626;23.308;2023-02-28T19:34:50;92741.66;;;5.53;100.00
38558;BME280;24333;42.626;23.308;2023-02-28T19:37:15;92741.03;;;5.47;100.00
38558;BME280;24333;42.626;23.308;2023-02-28T19:39:44;92731.41;;;5.58;100.00
38558;BME280;24333;42.626;23.308;2023-02-28T19:42:13;92735.78;;;5.50;100.00
38558;BME280;24333;42.626;23.308;2023-02-28T19:44:39;92724.16;;;5.50;100.00
38558;BME280;24333;42.626;23.308;2023-02-28T19:47:05;92726.88;;;5.50;100.00
38558;BME280;24333;42.626;23.308;2023-02-28T19:49:30;92721.31;;;5.46;100.00
38558;BME280;24333;42.626;23.308;2023-02-28T19:51:56;92722.91;;;5.47;100.00
38558;BME280;24333;42.626;23.308;2023-02-28T19:54:26;92717.69;;;5.42;100.00
38558;BME280;24333;42.626;23.308;2023-02-28T19:56:52;92722.44;;;5.45;100.00
38558;BME280;24333;42.626;23.308;2023-02-28T19:59:31;92720.38;;;5.42;100.00
38558;BME280;24333;42.626;23.308;2023-02-28T20:01:57;92712.72;;;5.44;100.00
38558;BME280;24333;42.626;23.308;2023-02-28T20:04:26;92712.63;;;5.41;100.00
38558;BME280;24333;42.626;23.308;2023-02-28T20:06:52;92718.50;;;5.43;100.00
38558;BME280;24333;42.626;23.308;2023-02-28T20:09:30;92716.91;;;5.42;100.00
38558;BME280;24333;42.626;23.308;2023-02-28T20:38:31;92711.34;;;5.17;100.00
38558;BME280;24333;42.626;23.308;2023-02-28T20:41:42;92695.53;;;5.06;100.00
38558;BME280;24333;42.626;23.308;2023-02-28T20:44:32;92711.69;;;5.15;100.00
38558;BME280;24333;42.626;23.308;2023-02-28T20:47:22;92711.16;;;5.22;100.00
38558;BME280;24333;42.626;23.308;2023-02-28T20:50:50;92705.94;;;5.17;100.00
38558;BME280;24333;42.626;23.308;2023-02-28T20:53:19;92686.34;;;4.99;100.00
38558;BME280;24333;42.626;23.308;2023-02-28T20:56:05;92679.22;;;4.94;100.00
38558;BME280;24333;42.626;23.308;2023-02-28T20:58:43;92693.78;;;5.02;100.00
38558;BME280;24333;42.626;23.308;2023-02-28T21:01:26;92710.56;;;5.16;100.00
38558;BME280;24333;42.626;23.308;2023-02-28T22:53:24;92715.72;;;4.79;100.00
38558;BME280;24333;42.626;23.308;2023-02-28T22:55:54;92701.25;;;4.75;100.00
38558;BME280;24333;42.626;23.308;2023-02-28T22:58:19;92705.88;;;4.74;100.00
38558;BME280;24333;42.626;23.308;2023-02-28T23:00:45;92694.81;;;4.67;100.00
38558;BME280;24333;42.626;23.308;2023-02-28T23:03:10;92698.94;;;4.65;100.00
38558;BME280;24333;42.626;23.308;2023-02-28T23:05:35;92706.59;;;4.54;100.00
38558;BME280;24333;42.626;23.308;2023-02-28T23:08:01;92707.84;;;4.65;100.00
38558;BME280;24333;42.626;23.308;2023-02-28T23:10:26;92713.72;;;4.67;100.00
38558;BME280;24333;42.626;23.308;2023-02-28T23:12:51;92690.56;;;4.57;100.00
38558;BME280;24333;42.626;23.308;2023-02-28T23:15:19;92707.31;;;4.72;100.00
38558;BME280;24333;42.626;23.308;2023-02-28T23:17:45;92705.28;;;4.69;100.00
38558;BME280;24333;42.626;23.308;2023-02-28T23:20:17;92704.81;;;4.67;100.00
38558;BME280;24333;42.626;23.308;2023-02-28T23:22:43;92703.38;;;4.69;100.00
38558;BME280;24333;42.626;23.308;2023-02-28T23:25:16;92678.44;;;4.63;100.00
38558;BME280;24333;42.626;23.308;2023-02-28T23:27:42;92670.25;;;4.51;100.00
38558;BME280;24333;42.626;23.308;2023-02-28T23:30:09;92675.28;;;4.61;100.00
38558;BME280;24333;42.626;23.308;2023-02-28T23:32:36;92669.88;;;4.61;100.00
38558;BME280;24333;42.626;23.308;2023-02-28T23:35:02;92667.31;;;4.65;100.00
38558;BME280;24333;42.626;23.308;2023-02-28T23:37:35;92667.63;;;4.63;100.00
38558;BME280;24333;42.626;23.308;2023-02-28T23:40:10;92661.13;;;4.65;100.00
38558;BME280;24333;42.626;23.308;2023-02-28T23:42:37;92654.78;;;4.60;100.00
38558;BME280;24333;42.626;23.308;2023-02-28T23:45:03;92654.31;;;4.58;100.00
38558;BME280;24333;42.626;23.308;2023-02-28T23:47:28;92649.69;;;4.59;100.00
38558;BME280;24333;42.626;23.308;2023-02-28T23:49:55;92652.59;;;4.54;100.00
38558;BME280;24333;42.626;23.308;2023-02-28T23:52:20;92648.00;;;4.54;100.00
38558;BME280;24333;42.626;23.308;2023-02-28T23:54:46;92651.94;;;4.57;100.00
